Time;durP1;ratioP1;P1;durP2;ratioP2;P2;SDS_P1;SDS_P2;PMS_P1;PMS_P2;Temp;Humidity;BMP_temperature;BMP_pressure;BME280_temperature;BME280_humidity;BME280_pressure;Samples;Min_cycle;Max_cycle;Signal;HPM_P1;HPM_P2
2020/12/24 00:02:14;;;;;;;0.17;0.15;;;8.80;99.90;;;;;;4970298;28;20035;-85
2020/12/24 00:04:40;;;;;;;0.32;0.25;;;8.80;99.90;;;;;;4942449;28;20726;-86
2020/12/24 00:07:06;;;;;;;6.22;0.38;;;8.80;99.90;;;;;;4952601;28;20086;-86
2020/12/24 00:09:39;;;;;;;0.20;0.20;;;8.80;99.90;;;;;;4963719;28;20033;-85
2020/12/24 00:12:05;;;;;;;0.30;0.30;;;8.80;99.90;;;;;;4943860;28;20035;-85
2020/12/24 00:14:31;;;;;;;0.30;0.30;;;8.80;99.90;;;;;;4953032;28;20034;-86
2020/12/24 00:16:56;;;;;;;0.25;0.20;;;8.80;99.90;;;;;;4968952;28;20117;-84
2020/12/24 00:19:22;;;;;;;1.98;0.20;;;8.80;99.90;;;;;;4936182;28;20034;-86
2020/12/24 00:21:48;;;;;;;0.25;0.25;;;8.80;99.90;;;;;;4952916;28;20476;-86
2020/12/24 00:24:15;;;;;;;0.30;0.30;;;8.80;99.90;;;;;;4952798;28;20039;-86
2020/12/24 00:26:42;;;;;;;0.25;0.13;;;8.70;99.90;;;;;;4969135;28;20700;-85
2020/12/24 00:29:09;;;;;;;0.20;0.20;;;8.70;99.90;;;;;;4977542;23;20065;-76
2020/12/24 00:31:39;;;;;;;0.30;0.28;;;8.70;99.90;;;;;;4979117;28;20026;-76
2020/12/24 00:34:06;;;;;;;1.17;0.20;;;8.70;99.90;;;;;;4976892;28;20062;-76
2020/12/24 00:36:32;;;;;;;0.55;0.40;;;8.70;99.90;;;;;;4974428;28;20126;-76
2020/12/24 00:38:58;;;;;;;1.60;0.22;;;8.70;99.90;;;;;;4973519;28;20069;-75
2020/12/24 00:41:24;;;;;;;0.25;0.20;;;8.70;99.90;;;;;;4982029;28;20062;-76
2020/12/24 00:43:50;;;;;;;0.57;0.30;;;8.60;99.90;;;;;;4972566;28;20053;-76
2020/12/24 00:46:16;;;;;;;0.55;0.30;;;8.70;99.90;;;;;;4973865;28;20039;-76
2020/12/24 00:48:42;;;;;;;0.47;0.20;;;8.70;99.90;;;;;;4971837;28;20153;-76
2020/12/24 00:51:08;;;;;;;0.30;0.30;;;8.70;99.90;;;;;;4972736;28;20138;-76
2020/12/24 00:53:34;;;;;;;0.32;0.20;;;8.70;99.90;;;;;;4982288;28;20074;-76
2020/12/24 00:56:00;;;;;;;0.88;0.40;;;8.70;99.90;;;;;;4972381;28;20035;-76
2020/12/24 00:58:26;;;;;;;0.30;0.22;;;8.70;99.90;;;;;;4971596;28;20067;-76
2020/12/24 01:00:52;;;;;;;0.45;0.30;;;8.70;99.90;;;;;;4963021;28;20074;-76
2020/12/24 01:03:18;;;;;;;0.22;0.22;;;8.70;99.90;;;;;;4971713;28;20363;-76
2020/12/24 01:05:43;;;;;;;0.45;0.20;;;8.70;99.90;;;;;;4987011;28;20031;-76
2020/12/24 01:08:09;;;;;;;0.10;0.10;;;8.70;99.90;;;;;;4977373;28;20043;-76
2020/12/24 01:10:35;;;;;;;0.32;0.32;;;8.70;99.90;;;;;;4964398;28;20029;-76
2020/12/24 01:13:01;;;;;;;0.40;0.22;;;8.70;99.90;;;;;;4983445;28;20062;-76
2020/12/24 01:15:26;;;;;;;0.22;0.20;;;8.70;99.90;;;;;;4973440;28;20065;-77
2020/12/24 01:17:52;;;;;;;0.38;0.30;;;8.70;99.90;;;;;;4973220;28;20050;-76
2020/12/24 01:20:18;;;;;;;0.40;0.28;;;8.80;99.90;;;;;;4966201;28;20026;-76
2020/12/24 01:22:44;;;;;;;2.83;0.65;;;8.70;99.90;;;;;;4982303;28;20038;-76
2020/12/24 01:25:09;;;;;;;0.20;0.20;;;8.70;99.90;;;;;;4957474;28;20094;-76
2020/12/24 01:27:35;;;;;;;0.38;0.30;;;8.70;99.90;;;;;;4954098;28;20838;-76
2020/12/24 01:30:01;;;;;;;0.60;0.20;;;8.70;99.90;;;;;;4952737;28;20035;-76
2020/12/24 01:32:27;;;;;;;0.30;0.20;;;8.70;99.90;;;;;;4971150;28;20401;-76
2020/12/24 01:34:52;;;;;;;0.20;0.20;;;8.70;99.90;;;;;;4975359;28;20497;-76
2020/12/24 01:37:18;;;;;;;0.35;0.32;;;8.70;99.90;;;;;;4951489;29;20058;-76
2020/12/24 01:39:44;;;;;;;0.30;0.30;;;8.70;99.90;;;;;;4963256;28;20034;-76
2020/12/24 01:42:10;;;;;;;0.20;0.20;;;8.70;99.90;;;;;;4973005;28;20042;-76
2020/12/24 01:44:36;;;;;;;0.47;0.38;;;8.70;99.90;;;;;;4971117;28;20034;-76
2020/12/24 01:47:02;;;;;;;0.40;0.15;;;8.70;99.90;;;;;;4970148;28;20351;-77
2020/12/24 01:49:32;;;;;;;1.20;0.30;;;8.70;99.90;;;;;;4952662;29;20046;-76
2020/12/24 01:51:58;;;;;;;0.68;0.30;;;8.60;99.90;;;;;;4966330;28;20027;-76
2020/12/24 01:54:25;;;;;;;0.63;0.30;;;8.60;99.90;;;;;;4982023;28;20027;-76
2020/12/24 01:56:51;;;;;;;0.90;0.50;;;8.70;99.90;;;;;;4952933;29;20090;-76
2020/12/24 01:59:18;;;;;;;0.35;0.30;;;8.70;99.90;;;;;;4951397;28;20031;-76
2020/12/24 02:01:49;;;;;;;0.30;0.30;;;8.70;99.90;;;;;;4965741;28;20711;-76
2020/12/24 02:04:16;;;;;;;0.40;0.40;;;8.70;99.90;;;;;;4961623;28;20039;-76
2020/12/24 02:06:43;;;;;;;0.57;0.32;;;8.70;99.90;;;;;;4972613;28;20037;-76
2020/12/24 02:09:10;;;;;;;0.52;0.30;;;8.70;99.90;;;;;;4971353;28;20038;-77
2020/12/24 02:11:39;;;;;;;0.40;0.30;;;8.70;99.90;;;;;;4968271;28;20030;-77
2020/12/24 02:14:06;;;;;;;1.88;0.40;;;8.70;99.90;;;;;;4985195;28;20035;-77
2020/12/24 02:16:36;;;;;;;0.30;0.20;;;8.60;99.90;;;;;;4952413;29;20035;-76
2020/12/24 02:19:03;;;;;;;0.30;0.30;;;8.70;99.90;;;;;;4952758;28;20118;-77
2020/12/24 02:21:29;;;;;;;2.75;0.70;;;8.70;99.90;;;;;;4975856;28;20034;-76
2020/12/24 02:23:55;;;;;;;1.40;0.30;;;8.70;99.90;;;;;;4972731;28;20117;-76
2020/12/24 02:26:21;;;;;;;0.45;0.30;;;8.70;99.90;;;;;;4972600;28;20496;-76
2020/12/24 02:28:46;;;;;;;0.30;0.30;;;8.70;99.90;;;;;;4956311;28;20069;-76
2020/12/24 02:31:12;;;;;;;0.20;0.20;;;8.70;99.90;;;;;;4961190;28;20113;-76
2020/12/24 02:33:38;;;;;;;0.63;0.45;;;8.70;99.90;;;;;;4976903;28;20034;-76
2020/12/24 02:36:04;;;;;;;0.55;0.30;;;8.60;99.90;;;;;;4958458;28;20035;-76
2020/12/24 02:38:31;;;;;;;0.28;0.28;;;8.70;99.90;;;;;;4953116;28;20039;-77
2020/12/24 02:40:57;;;;;;;0.30;0.20;;;8.60;99.90;;;;;;4969077;28;20134;-76
2020/12/24 02:43:22;;;;;;;0.20;0.20;;;8.50;99.90;;;;;;4967124;28;20114;-76
2020/12/24 02:45:48;;;;;;;1.20;0.20;;;8.50;99.90;;;;;;4972600;28;20544;-76
2020/12/24 02:48:14;;;;;;;0.35;0.20;;;8.50;99.90;;;;;;4961450;28;20039;-76
2020/12/24 02:50:39;;;;;;;0.10;0.10;;;8.50;99.90;;;;;;4953397;28;20050;-76
2020/12/24 02:53:05;;;;;;;3.22;0.40;;;8.50;99.90;;;;;;4976814;28;20054;-76
2020/12/24 02:55:31;;;;;;;0.17;0.13;;;8.40;99.90;;;;;;4971207;28;20493;-76
2020/12/24 02:57:57;;;;;;;1.75;1.10;;;8.40;99.90;;;;;;4970380;28;20101;-77
2020/12/24 03:00:22;;;;;;;0.10;0.10;;;8.30;99.90;;;;;;4966204;28;20038;-76
2020/12/24 03:02:48;;;;;;;0.10;0.10;;;8.20;99.90;;;;;;4977469;28;20031;-76
2020/12/24 03:05:14;;;;;;;1.42;0.10;;;8.20;99.90;;;;;;4953820;28;20031;-76
2020/12/24 03:07:40;;;;;;;0.30;0.20;;;8.20;99.90;;;;;;4970669;28;20560;-77
2020/12/24 03:10:07;;;;;;;0.20;0.10;;;8.10;99.90;;;;;;4968633;28;20027;-76
2020/12/24 03:12:33;;;;;;;0.82;0.25;;;8.10;99.90;;;;;;4968148;28;20034;-76
2020/12/24 03:14:59;;;;;;;1.38;0.28;;;8.00;99.90;;;;;;4975093;28;20114;-76
2020/12/24 03:17:25;;;;;;;0.20;0.10;;;8.00;99.90;;;;;;4952633;28;20131;-76
2020/12/24 03:19:51;;;;;;;0.10;0.10;;;8.00;99.90;;;;;;4944597;28;20041;-76
2020/12/24 03:22:16;;;;;;;0.10;0.10;;;8.00;99.90;;;;;;4956581;28;20604;-76
2020/12/24 03:24:42;;;;;;;0.20;0.15;;;8.00;99.90;;;;;;4952352;28;20090;-76
2020/12/24 03:27:08;;;;;;;0.38;0.35;;;8.00;99.90;;;;;;4970131;28;20042;-77
2020/12/24 03:29:34;;;;;;;0.60;0.30;;;7.90;99.90;;;;;;4952241;28;20126;-76
2020/12/24 03:31:59;;;;;;;0.30;0.13;;;7.90;99.90;;;;;;4964730;28;20042;-77
2020/12/24 03:34:25;;;;;;;1.13;0.20;;;7.90;99.90;;;;;;4980348;28;20027;-77
2020/12/24 03:36:51;;;;;;;0.20;0.20;;;7.90;99.90;;;;;;4951427;29;20122;-76
2020/12/24 03:39:16;;;;;;;1.40;0.20;;;7.80;99.90;;;;;;4953572;28;20504;-76
2020/12/24 03:41:42;;;;;;;0.10;0.10;;;7.80;99.90;;;;;;4972557;28;20069;-76
2020/12/24 03:44:08;;;;;;;0.30;0.10;;;7.90;99.90;;;;;;4970228;28;20058;-76
2020/12/24 03:46:34;;;;;;;0.50;0.15;;;7.90;99.90;;;;;;4971999;28;20031;-76
2020/12/24 03:49:00;;;;;;;0.28;0.10;;;7.90;99.90;;;;;;4954656;28;20118;-76
2020/12/24 03:51:26;;;;;;;0.57;0.10;;;7.90;99.90;;;;;;4969888;28;20027;-76
2020/12/24 03:53:51;;;;;;;0.98;0.10;;;7.90;99.90;;;;;;4956947;28;20042;-76
2020/12/24 03:56:17;;;;;;;0.32;0.17;;;7.80;99.90;;;;;;4966546;28;20099;-76
2020/12/24 03:58:43;;;;;;;0.93;0.30;;;7.80;99.90;;;;;;4950805;28;20031;-76
2020/12/24 04:01:10;;;;;;;0.17;0.17;;;7.80;99.90;;;;;;4967818;28;20108;-76
2020/12/24 04:03:36;;;;;;;1.52;0.20;;;7.80;99.90;;;;;;4963821;28;20059;-76
2020/12/24 04:06:04;;;;;;;0.03;0.03;;;7.80;99.90;;;;;;4952268;29;20027;-76
2020/12/24 04:08:29;;;;;;;0.40;0.10;;;7.80;99.90;;;;;;4952835;28;20051;-76
2020/12/24 04:10:55;;;;;;;0.35;0.20;;;7.80;99.90;;;;;;4964577;28;20030;-76
2020/12/24 04:13:21;;;;;;;3.00;0.32;;;7.80;99.90;;;;;;4979734;28;20035;-76
2020/12/24 04:15:47;;;;;;;0.40;0.20;;;7.80;99.90;;;;;;4975201;28;20045;-76
2020/12/24 04:18:12;;;;;;;0.10;0.10;;;7.80;99.90;;;;;;4973965;28;20067;-77
2020/12/24 04:20:38;;;;;;;0.28;0.20;;;7.80;99.90;;;;;;4968353;28;20062;-76
2020/12/24 04:23:04;;;;;;;0.90;0.20;;;7.80;99.90;;;;;;4977673;28;20532;-76
2020/12/24 04:25:29;;;;;;;0.40;0.22;;;7.80;99.90;;;;;;4975156;28;20061;-76
2020/12/24 04:27:55;;;;;;;0.95;0.20;;;7.80;99.90;;;;;;4966636;28;20035;-76
2020/12/24 04:30:21;;;;;;;0.55;0.20;;;7.80;99.90;;;;;;4955317;28;20035;-76
2020/12/24 04:32:46;;;;;;;0.30;0.30;;;7.70;99.90;;;;;;4976368;28;20448;-76
2020/12/24 04:35:12;;;;;;;0.45;0.20;;;7.70;99.90;;;;;;4974573;28;20028;-76
2020/12/24 04:37:38;;;;;;;1.33;0.22;;;7.70;99.90;;;;;;4955891;28;20031;-76
2020/12/24 04:40:04;;;;;;;0.10;0.10;;;7.70;99.90;;;;;;4965104;28;20062;-76
2020/12/24 04:42:31;;;;;;;0.10;0.10;;;7.70;99.90;;;;;;4975902;28;20039;-76
2020/12/24 04:44:59;;;;;;;0.38;0.20;;;7.60;99.90;;;;;;4974517;28;20035;-75
2020/12/24 04:47:25;;;;;;;1.23;0.30;;;7.60;99.90;;;;;;4970488;28;20093;-75
2020/12/24 04:49:52;;;;;;;1.30;0.20;;;7.50;99.90;;;;;;4956290;28;20027;-75
2020/12/24 04:52:18;;;;;;;0.57;0.10;;;7.50;99.90;;;;;;4974939;28;20029;-75
2020/12/24 04:54:46;;;;;;;0.40;0.20;;;7.50;99.90;;;;;;4973443;28;20035;-75
2020/12/24 04:57:12;;;;;;;0.68;0.10;;;7.40;99.90;;;;;;4974496;28;20049;-75
2020/12/24 04:59:39;;;;;;;0.43;0.20;;;7.40;99.90;;;;;;4966422;28;20034;-75
2020/12/24 05:02:05;;;;;;;0.50;0.20;;;7.40;99.90;;;;;;4978533;28;20146;-75
2020/12/24 05:04:32;;;;;;;0.43;0.30;;;7.30;99.90;;;;;;4974578;28;20620;-75
2020/12/24 05:07:06;;;;;;;0.38;0.25;;;7.30;99.90;;;;;;4973302;28;20043;-75
2020/12/24 05:09:32;;;;;;;0.10;0.10;;;7.30;99.90;;;;;;4954949;28;20054;-75
2020/12/24 05:11:58;;;;;;;0.30;0.17;;;7.30;99.90;;;;;;4974556;28;20110;-75
2020/12/24 05:14:26;;;;;;;0.32;0.20;;;7.20;99.90;;;;;;4975945;28;20463;-74
2020/12/24 05:17:20;;;;;;;0.22;0.22;;;7.20;99.90;;;;;;4974003;28;20038;-74
2020/12/24 05:19:59;;;;;;;0.75;0.17;;;7.20;99.90;;;;;;4968842;28;20523;-75
2020/12/24 05:22:25;;;;;;;0.10;0.10;;;7.10;99.90;;;;;;4972331;28;20063;-75
2020/12/24 05:24:50;;;;;;;1.85;0.20;;;7.10;99.90;;;;;;4971690;28;20116;-75
2020/12/24 05:27:22;;;;;;;1.70;0.13;;;7.00;99.90;;;;;;4970264;28;20038;-75
2020/12/24 05:29:50;;;;;;;0.40;0.17;;;7.00;99.90;;;;;;4957685;28;20054;-75
2020/12/24 05:32:26;;;;;;;0.98;0.20;;;6.90;99.90;;;;;;4966230;28;20028;-75
2020/12/24 05:35:11;;;;;;;0.10;0.10;;;6.90;99.90;;;;;;4979870;28;20045;-75
2020/12/24 05:37:38;;;;;;;0.10;0.10;;;6.80;99.90;;;;;;4974602;28;20026;-75
2020/12/24 05:40:16;;;;;;;0.45;0.17;;;6.80;99.90;;;;;;4969288;28;20023;-75
2020/12/24 05:42:59;;;;;;;0.20;0.17;;;6.70;99.90;;;;;;4972133;28;20077;-75
2020/12/24 05:45:29;;;;;;;0.40;0.20;;;6.70;99.90;;;;;;4954466;29;20046;-75
2020/12/24 05:48:15;;;;;;;0.20;0.10;;;6.60;99.90;;;;;;4954165;28;20130;-75
2020/12/24 05:50:42;;;;;;;0.10;0.10;;;6.50;99.90;;;;;;4956897;28;20046;-75
2020/12/24 05:53:10;;;;;;;2.10;0.40;;;6.50;99.90;;;;;;4980384;28;20019;-75
2020/12/24 05:55:38;;;;;;;2.70;0.45;;;6.50;99.90;;;;;;4980108;28;20066;-75
2020/12/24 05:58:05;;;;;;;1.95;0.30;;;6.50;99.90;;;;;;4973389;28;20031;-75
2020/12/24 06:00:33;;;;;;;0.55;0.10;;;6.30;99.90;;;;;;4973275;28;20050;-75
2020/12/24 06:03:34;;;;;;;1.45;0.30;;;6.30;99.90;;;;;;4973694;28;20073;-75
2020/12/24 06:06:04;;;;;;;1.55;0.25;;;6.30;99.90;;;;;;4973249;28;20035;-75
2020/12/24 06:08:34;;;;;;;0.98;0.25;;;6.30;99.90;;;;;;4961080;28;20043;-75
2020/12/24 06:11:06;;;;;;;1.08;0.20;;;6.20;99.90;;;;;;4956373;28;20029;-75
2020/12/24 06:13:41;;;;;;;0.40;0.20;;;6.10;99.90;;;;;;4988437;28;20527;-75
2020/12/24 06:16:11;;;;;;;0.90;0.20;;;6.10;99.90;;;;;;4976333;28;20049;-75
2020/12/24 06:18:45;;;;;;;0.45;0.20;;;6.10;99.90;;;;;;4971335;28;20058;-75
2020/12/24 06:21:17;;;;;;;0.68;0.10;;;6.10;99.90;;;;;;4975351;28;20704;-76
2020/12/24 06:23:45;;;;;;;2.95;0.40;;;6.00;99.90;;;;;;4960931;28;20043;-75
2020/12/24 06:26:16;;;;;;;3.78;0.35;;;6.00;99.90;;;;;;4972710;28;20098;-75
2020/12/24 06:28:42;;;;;;;2.28;0.10;;;6.00;99.90;;;;;;4960194;28;20031;-75
2020/12/24 06:31:09;;;;;;;1.00;0.20;;;6.00;99.90;;;;;;4967794;28;20057;-75
2020/12/24 06:33:34;;;;;;;1.10;0.10;;;5.90;99.90;;;;;;4983152;28;20038;-75
2020/12/24 06:36:00;;;;;;;4.88;0.30;;;5.90;99.90;;;;;;4974712;28;20520;-75
2020/12/24 06:38:47;;;;;;;1.88;0.30;;;5.90;99.90;;;;;;4971519;28;20058;-75
2020/12/24 06:41:29;;;;;;;1.98;0.85;;;5.90;99.90;;;;;;4975752;28;20026;-75
2020/12/24 06:43:56;;;;;;;0.52;0.22;;;5.80;99.90;;;;;;4972208;28;20056;-75
2020/12/24 06:46:22;;;;;;;0.70;0.20;;;5.80;99.90;;;;;;4972557;28;20073;-75
2020/12/24 06:49:03;;;;;;;2.10;0.17;;;5.70;99.90;;;;;;4972060;28;20042;-75
2020/12/24 06:51:50;;;;;;;0.30;0.10;;;5.70;99.90;;;;;;4968191;28;20037;-75
2020/12/24 06:54:20;;;;;;;0.45;0.15;;;5.70;99.90;;;;;;4984578;28;20030;-75
2020/12/24 06:56:46;;;;;;;1.70;0.38;;;5.70;99.90;;;;;;4953081;28;20039;-75
2020/12/24 06:59:18;;;;;;;0.88;0.80;;;5.70;99.90;;;;;;4954539;28;20056;-75
2020/12/24 07:02:01;;;;;;;1.15;0.22;;;5.70;99.90;;;;;;4970539;28;20495;-75
2020/12/24 07:04:40;;;;;;;0.75;0.15;;;5.70;99.90;;;;;;4969187;28;20035;-75
2020/12/24 07:07:06;;;;;;;1.23;0.30;;;5.60;99.90;;;;;;4968639;28;20027;-75
2020/12/24 07:09:32;;;;;;;1.25;0.28;;;5.60;99.90;;;;;;4970842;28;20437;-75
2020/12/24 07:11:59;;;;;;;3.60;0.40;;;5.50;99.90;;;;;;4969491;28;20072;-75
2020/12/24 07:14:33;;;;;;;3.30;0.43;;;5.50;99.90;;;;;;4970352;28;20468;-75
2020/12/24 07:17:10;;;;;;;1.98;0.43;;;5.50;99.90;;;;;;4972021;28;20408;-75
2020/12/24 07:19:38;;;;;;;1.35;0.20;;;5.50;99.90;;;;;;4969380;28;20062;-75
2020/12/24 07:22:06;;;;;;;2.70;0.35;;;5.50;99.90;;;;;;4974671;28;20440;-75
2020/12/24 07:24:32;;;;;;;1.05;0.30;;;5.60;99.90;;;;;;4971054;28;20027;-75
2020/12/24 07:27:00;;;;;;;4.80;0.28;;;5.60;99.90;;;;;;4971852;28;20039;-75
2020/12/24 07:29:27;;;;;;;1.65;0.30;;;5.70;99.90;;;;;;4971511;28;20042;-75
2020/12/24 07:31:54;;;;;;;0.90;0.20;;;5.70;99.90;;;;;;4966621;28;20437;-75
2020/12/24 07:34:24;;;;;;;3.05;0.30;;;5.70;99.90;;;;;;4983244;28;20191;-75
2020/12/24 07:36:51;;;;;;;0.60;0.20;;;5.70;99.90;;;;;;4971732;28;20139;-75
2020/12/24 07:39:17;;;;;;;2.63;0.77;;;5.70;99.90;;;;;;4970786;28;20386;-75
2020/12/24 07:41:43;;;;;;;0.77;0.30;;;5.70;99.90;;;;;;4974868;28;20106;-75
2020/12/24 07:44:13;;;;;;;4.68;0.63;;;5.70;99.90;;;;;;4973370;28;20027;-75
2020/12/24 07:46:39;;;;;;;2.35;0.10;;;5.80;99.90;;;;;;4975698;28;20405;-75
2020/12/24 07:49:06;;;;;;;1.00;0.38;;;5.80;99.90;;;;;;4975613;28;20420;-75
2020/12/24 07:51:32;;;;;;;0.43;0.22;;;5.80;99.90;;;;;;4971679;28;20035;-75
2020/12/24 07:54:12;;;;;;;1.55;0.20;;;5.80;99.90;;;;;;4975840;28;20027;-74
2020/12/24 07:56:44;;;;;;;3.53;0.20;;;5.90;99.90;;;;;;4981576;28;20394;-75
2020/12/24 07:59:10;;;;;;;0.10;0.10;;;5.80;99.90;;;;;;4966493;28;20050;-75
2020/12/24 08:01:35;;;;;;;1.80;0.28;;;5.90;99.90;;;;;;4974796;28;20432;-75
2020/12/24 08:04:04;;;;;;;2.63;0.40;;;5.90;99.90;;;;;;4974882;28;20030;-75
2020/12/24 08:06:31;;;;;;;3.90;0.20;;;5.90;99.90;;;;;;4975209;28;20489;-74
2020/12/24 08:09:13;;;;;;;0.88;0.20;;;5.90;99.90;;;;;;4975093;28;20027;-75
2020/12/24 08:11:41;;;;;;;0.63;0.20;;;5.90;99.90;;;;;;4974487;28;20022;-75
2020/12/24 08:14:08;;;;;;;3.70;0.40;;;5.90;99.90;;;;;;4974511;28;20508;-75
2020/12/24 08:16:43;;;;;;;1.58;0.40;;;5.80;99.90;;;;;;4969778;28;20081;-75
2020/12/24 08:19:18;;;;;;;3.05;0.30;;;5.80;99.90;;;;;;4973677;28;20039;-75
2020/12/24 08:21:57;;;;;;;1.92;0.10;;;5.80;99.90;;;;;;4971189;28;20031;-75
2020/12/24 08:24:24;;;;;;;2.58;0.40;;;5.80;99.90;;;;;;4975172;28;20500;-75
2020/12/24 08:26:50;;;;;;;2.30;0.43;;;5.80;99.90;;;;;;4971763;28;20441;-75
2020/12/24 08:29:16;;;;;;;0.20;0.20;;;5.90;99.90;;;;;;4972839;28;20046;-75
2020/12/24 08:31:43;;;;;;;1.48;0.20;;;6.00;99.90;;;;;;4968393;28;20034;-75
2020/12/24 08:34:09;;;;;;;4.22;1.02;;;6.10;99.90;;;;;;4984169;28;20022;-75
2020/12/24 08:36:46;;;;;;;0.17;0.10;;;6.20;99.90;;;;;;4962116;28;20027;-75
2020/12/24 08:39:13;;;;;;;4.10;0.10;;;6.40;99.90;;;;;;4971593;28;20027;-75
2020/12/24 08:41:42;;;;;;;3.78;0.35;;;6.50;99.90;;;;;;4976630;28;20477;-75
2020/12/24 08:44:09;;;;;;;2.42;0.28;;;6.70;99.90;;;;;;4974341;28;20038;-75
2020/12/24 08:46:35;;;;;;;1.15;0.35;;;6.80;99.90;;;;;;4974680;28;20097;-75
2020/12/24 08:49:23;;;;;;;0.40;0.20;;;6.90;99.90;;;;;;4974295;28;20031;-75
2020/12/24 08:51:50;;;;;;;1.55;0.20;;;6.90;99.90;;;;;;4975290;28;20109;-75
2020/12/24 08:54:16;;;;;;;1.45;0.25;;;6.90;99.90;;;;;;4976105;28;20106;-75
2020/12/24 08:56:44;;;;;;;2.63;0.17;;;6.90;99.90;;;;;;4954381;28;20114;-75
2020/12/24 08:59:14;;;;;;;2.38;0.10;;;6.80;99.90;;;;;;4960240;28;20046;-75
2020/12/24 09:01:42;;;;;;;5.20;0.47;;;6.80;99.90;;;;;;4975193;28;20026;-75
2020/12/24 09:04:16;;;;;;;1.83;0.20;;;6.70;99.90;;;;;;4963830;28;20528;-75
2020/12/24 09:06:43;;;;;;;0.65;0.10;;;6.60;99.90;;;;;;4954951;28;20038;-75
2020/12/24 09:09:25;;;;;;;0.98;0.20;;;6.50;99.90;;;;;;4955188;28;20416;-75
2020/12/24 09:11:52;;;;;;;3.10;0.30;;;6.50;99.90;;;;;;4974945;28;20026;-74
2020/12/24 09:14:20;;;;;;;0.47;0.13;;;6.50;99.90;;;;;;4978215;28;20030;-75
2020/12/24 09:16:54;;;;;;;0.30;0.10;;;6.50;99.90;;;;;;4954860;29;20045;-75
2020/12/24 09:19:20;;;;;;;3.05;0.17;;;6.40;99.90;;;;;;4969066;28;20372;-75
2020/12/24 09:21:58;;;;;;;0.63;0.10;;;6.30;99.90;;;;;;4975264;28;20482;-76
2020/12/24 09:24:25;;;;;;;1.83;0.20;;;6.30;99.90;;;;;;4951113;28;20448;-75
2020/12/24 09:26:53;;;;;;;2.40;0.20;;;6.30;99.90;;;;;;4967726;28;20042;-76
2020/12/24 09:29:20;;;;;;;1.98;0.20;;;6.30;99.90;;;;;;4968800;28;20080;-75
2020/12/24 09:31:57;;;;;;;0.10;0.10;;;6.30;99.90;;;;;;4958937;28;20026;-76
2020/12/24 09:34:23;;;;;;;1.35;1.13;;;6.20;99.90;;;;;;4965820;28;20031;-76
2020/12/24 09:36:50;;;;;;;0.30;0.30;;;6.30;99.90;;;;;;4969634;28;20151;-76
2020/12/24 09:39:16;;;;;;;1.38;0.10;;;6.20;99.90;;;;;;4971315;28;20109;-76
2020/12/24 09:41:43;;;;;;;0.10;0.10;;;6.20;99.90;;;;;;4968631;28;20034;-75
2020/12/24 09:44:10;;;;;;;3.10;0.20;;;6.20;99.90;;;;;;4971382;28;20038;-76
2020/12/24 09:46:36;;;;;;;0.63;0.13;;;6.20;99.90;;;;;;4967664;28;20033;-76
2020/12/24 09:49:02;;;;;;;2.22;0.10;;;6.20;99.90;;;;;;4966641;28;20023;-75
2020/12/24 09:51:32;;;;;;;1.17;0.32;;;6.10;99.90;;;;;;4963247;28;20354;-76
2020/12/24 09:53:58;;;;;;;1.02;0.35;;;6.10;99.90;;;;;;4975388;28;20030;-76
2020/12/24 09:56:24;;;;;;;0.25;0.20;;;6.20;99.90;;;;;;4971647;28;20450;-76
2020/12/24 09:58:50;;;;;;;0.25;0.25;;;6.20;99.90;;;;;;4970190;28;20066;-75
2020/12/24 10:01:16;;;;;;;0.20;0.10;;;6.20;99.90;;;;;;4971221;28;20122;-75
2020/12/24 10:03:42;;;;;;;0.30;0.30;;;6.20;99.90;;;;;;4968883;28;20023;-76
2020/12/24 10:06:09;;;;;;;0.25;0.20;;;6.20;99.90;;;;;;4969028;28;20042;-75
2020/12/24 10:08:34;;;;;;;1.00;0.20;;;6.20;99.90;;;;;;4969729;28;20041;-75
2020/12/24 10:11:00;;;;;;;1.45;0.20;;;6.20;99.90;;;;;;4966337;28;20488;-76
2020/12/24 10:13:26;;;;;;;0.30;0.20;;;6.30;99.90;;;;;;4973603;28;20038;-75
2020/12/24 10:15:52;;;;;;;1.88;0.68;;;6.30;99.90;;;;;;4962010;28;20029;-75
2020/12/24 10:18:17;;;;;;;0.52;0.28;;;6.20;99.90;;;;;;4951082;29;20042;-75
2020/12/24 10:20:43;;;;;;;0.40;0.30;;;6.30;99.90;;;;;;4978261;28;20054;-75
2020/12/24 10:23:10;;;;;;;0.30;0.15;;;6.30;99.90;;;;;;4980509;28;20336;-74
2020/12/24 10:25:39;;;;;;;0.65;0.22;;;6.30;99.90;;;;;;4964678;28;20039;-76
2020/12/24 10:28:06;;;;;;;0.40;0.20;;;6.30;99.90;;;;;;4970399;28;20484;-75
2020/12/24 10:30:32;;;;;;;2.42;0.20;;;6.30;99.90;;;;;;4968771;28;20042;-75
2020/12/24 10:32:58;;;;;;;0.55;0.22;;;6.20;99.90;;;;;;4972218;28;20031;-75
2020/12/24 10:35:24;;;;;;;1.95;0.10;;;6.30;99.90;;;;;;4971830;28;20027;-75
2020/12/24 10:37:49;;;;;;;0.40;0.28;;;6.30;99.90;;;;;;4975349;28;20592;-76
2020/12/24 10:40:15;;;;;;;0.85;0.20;;;6.30;99.90;;;;;;4967372;28;20026;-75
2020/12/24 10:42:46;;;;;;;1.67;0.30;;;6.20;99.90;;;;;;4969038;28;20046;-76
2020/12/24 10:45:13;;;;;;;0.10;0.10;;;6.20;99.90;;;;;;4969922;28;20034;-75
2020/12/24 10:47:39;;;;;;;0.75;0.30;;;6.20;99.90;;;;;;4963063;28;20054;-75
2020/12/24 10:50:05;;;;;;;0.30;0.30;;;6.20;99.90;;;;;;4970198;28;20027;-75
2020/12/24 10:52:31;;;;;;;0.22;0.10;;;6.20;99.90;;;;;;4973315;28;20023;-75
2020/12/24 10:54:57;;;;;;;2.13;0.30;;;6.20;99.90;;;;;;4982874;28;20067;-75
2020/12/24 10:57:23;;;;;;;0.85;0.20;;;6.30;99.90;;;;;;4977315;28;20117;-75
2020/12/24 10:59:48;;;;;;;1.30;0.20;;;6.30;99.90;;;;;;4972811;28;20026;-74
2020/12/24 11:02:14;;;;;;;1.05;0.20;;;6.30;99.90;;;;;;4974010;28;20081;-75
2020/12/24 11:04:40;;;;;;;3.50;0.20;;;6.30;99.90;;;;;;4957286;28;20027;-77
2020/12/24 11:07:06;;;;;;;0.15;0.10;;;6.30;99.90;;;;;;4958632;28;20405;-76
2020/12/24 11:09:31;;;;;;;1.45;0.55;;;6.30;99.90;;;;;;4965000;28;20125;-76
2020/12/24 11:11:58;;;;;;;1.30;0.10;;;6.20;99.90;;;;;;4966147;28;20023;-75
2020/12/24 11:14:24;;;;;;;1.08;0.10;;;6.30;99.90;;;;;;4974028;28;20073;-76
2020/12/24 11:16:50;;;;;;;0.10;0.10;;;6.30;99.90;;;;;;4988864;28;20074;-76
2020/12/24 11:19:15;;;;;;;0.35;0.20;;;6.30;99.90;;;;;;4979573;28;20058;-76
2020/12/24 11:21:41;;;;;;;1.67;0.13;;;6.20;99.90;;;;;;4975950;28;20031;-75
2020/12/24 11:24:07;;;;;;;0.10;0.10;;;6.20;99.90;;;;;;4971779;28;20039;-75
2020/12/24 11:26:37;;;;;;;0.10;0.10;;;6.20;99.90;;;;;;4967200;28;20397;-75
2020/12/24 11:29:05;;;;;;;0.10;0.10;;;6.20;99.90;;;;;;4970666;28;20070;-75
2020/12/24 11:31:33;;;;;;;0.10;0.10;;;6.20;99.90;;;;;;4967124;28;20032;-75
2020/12/24 11:33:59;;;;;;;0.20;0.20;;;6.30;99.90;;;;;;4988436;28;20042;-75
2020/12/24 11:36:25;;;;;;;0.38;0.17;;;6.30;99.90;;;;;;4953811;28;20073;-75
2020/12/24 11:38:52;;;;;;;0.10;0.10;;;6.20;99.90;;;;;;4954788;28;20027;-75
2020/12/24 11:41:24;;;;;;;1.33;0.20;;;6.20;99.90;;;;;;4979318;28;20038;-75
2020/12/24 11:43:51;;;;;;;0.82;0.10;;;6.20;99.90;;;;;;4968093;28;20127;-75
2020/12/24 11:46:19;;;;;;;4.95;0.57;;;6.20;99.90;;;;;;4978803;28;20054;-75
2020/12/24 11:48:46;;;;;;;0.20;0.20;;;6.30;99.90;;;;;;4979653;28;20030;-75
2020/12/24 11:51:13;;;;;;;0.00;0.00;;;6.20;99.90;;;;;;4969915;28;20066;-76
2020/12/24 11:53:40;;;;;;;2.20;1.10;;;6.20;99.90;;;;;;4969260;28;20027;-76
2020/12/24 11:56:11;;;;;;;0.20;0.10;;;6.20;99.90;;;;;;4967641;28;20122;-76
2020/12/24 11:58:36;;;;;;;0.50;0.17;;;6.20;99.90;;;;;;4969454;28;20035;-75
2020/12/24 12:01:02;;;;;;;0.00;0.00;;;6.20;99.90;;;;;;4970765;28;20042;-76
2020/12/24 12:03:28;;;;;;;0.05;0.00;;;6.20;99.90;;;;;;4961686;28;20037;-76
2020/12/24 12:05:53;;;;;;;2.40;0.22;;;6.20;99.90;;;;;;4970643;28;20038;-76
2020/12/24 12:08:19;;;;;;;0.22;0.13;;;6.20;99.90;;;;;;4970204;28;20114;-75
2020/12/24 12:10:45;;;;;;;0.50;0.10;;;6.20;99.90;;;;;;4967619;28;20511;-76
2020/12/24 12:13:11;;;;;;;0.20;0.10;;;6.30;99.90;;;;;;4972795;28;20452;-76
2020/12/24 12:15:37;;;;;;;0.55;0.00;;;6.30;99.90;;;;;;4966905;28;20043;-76
2020/12/24 12:18:05;;;;;;;0.85;0.20;;;6.30;99.90;;;;;;4972912;28;20086;-76
2020/12/24 12:20:32;;;;;;;2.17;0.22;;;6.30;99.90;;;;;;4965953;28;20516;-76
2020/12/24 12:22:58;;;;;;;0.50;0.13;;;6.30;99.90;;;;;;4965553;28;20027;-76
2020/12/24 12:25:24;;;;;;;0.15;0.10;;;6.30;99.90;;;;;;4965292;28;20046;-76
2020/12/24 12:27:49;;;;;;;0.05;0.05;;;6.20;99.90;;;;;;4966965;28;20038;-76
2020/12/24 12:30:16;;;;;;;0.22;0.13;;;6.30;99.90;;;;;;4971286;28;20125;-76
2020/12/24 12:32:41;;;;;;;1.13;0.20;;;6.30;99.90;;;;;;4979568;28;20026;-76
2020/12/24 12:35:07;;;;;;;1.15;0.00;;;6.30;99.90;;;;;;4973821;28;20027;-76
2020/12/24 12:37:37;;;;;;;0.10;0.10;;;6.30;99.90;;;;;;4966835;28;20026;-76
2020/12/24 12:40:04;;;;;;;0.73;0.20;;;6.30;99.90;;;;;;4974616;28;20031;-76
2020/12/24 12:42:30;;;;;;;0.47;0.20;;;6.30;99.90;;;;;;4975376;28;20714;-76
2020/12/24 12:44:56;;;;;;;0.88;0.20;;;6.30;99.90;;;;;;4973060;28;20175;-76
2020/12/24 12:47:23;;;;;;;0.40;0.10;;;6.30;99.90;;;;;;4971209;28;20167;-76
2020/12/24 12:49:48;;;;;;;0.57;0.15;;;6.30;99.90;;;;;;4963593;28;20032;-77
2020/12/24 12:52:14;;;;;;;0.10;0.10;;;6.30;99.90;;;;;;4969780;28;20041;-75
2020/12/24 12:54:40;;;;;;;2.55;0.50;;;6.20;99.90;;;;;;4973032;28;20034;-76
2020/12/24 12:57:05;;;;;;;1.45;0.15;;;6.20;99.90;;;;;;4974827;28;20038;-76
2020/12/24 12:59:31;;;;;;;0.10;0.10;;;6.20;99.90;;;;;;4975439;28;20413;-76
2020/12/24 13:01:57;;;;;;;0.45;0.38;;;6.20;99.90;;;;;;4972102;28;20031;-76